Impacts TAF Board INFO
FOR SITUATIONAL AWARENESS. NOT TO BE USED FOR FLIGHT PLANNING PURPOSES.
IDs:

KMIA - Miami Intl, FL, US

Issued at 1722 UTC 22 Apr 2018
Updated at 2021 UTC 22 Apr 2018
Potential Impact None Slight Moderate High
Time<<23/21Z 23/22Z 23/23Z 24/00Z 24/01Z 24/02Z 24/03Z 24/04Z 24/05Z 24/06Z 24/07Z 24/08Z 24/09Z
Type PRVL PRVL PRVL
VIS >6 >6 >6
CIG -- -- --
Cover SCT SCT SCT
FltCat VFR VFR VFR
WX VCSH VCSH VCSH
WDir 110 110 110
WSpd 12 12 12
WGst -- -- --

Raw TAF
KMIA 221722Z 2218/2324 10012KT P6SM SCT025 BKN045
  FM222200 11011KT P6SM SCT025 BKN035
  FM230600 11009KT P6SM VCSH SCT020 BKN035
  FM231400 11012KT P6SM VCSH SCT030


METAR Board
Radar Display
Forecast Discussion

FOR SITUATIONAL AWARENESS. NOT TO BE USED FOR FLIGHT PLANNING PURPOSES.